sensor_id;sensor_type;location;lat;lon;timestamp;P1;durP1;ratioP1;P2;durP2;ratioP2
70026;SDS011;57506;50.092;15.804;2022-08-20T00:00:09;17.45;;;10.60;;
70026;SDS011;57506;50.092;15.804;2022-08-20T00:02:45;26.50;;;11.43;;
70026;SDS011;57506;50.092;15.804;2022-08-20T00:05:15;16.38;;;9.77;;
70026;SDS011;57506;50.092;15.804;2022-08-20T00:07:45;21.48;;;9.82;;
70026;SDS011;57506;50.092;15.804;2022-08-20T00:10:10;21.77;;;9.47;;
70026;SDS011;57506;50.092;15.804;2022-08-20T00:12:36;18.45;;;9.10;;
70026;SDS011;57506;50.092;15.804;2022-08-20T00:15:08;23.65;;;10.63;;
70026;SDS011;57506;50.092;15.804;2022-08-20T00:17:34;24.27;;;12.68;;
70026;SDS011;57506;50.092;15.804;2022-08-20T00:20:06;27.98;;;17.42;;
70026;SDS011;57506;50.092;15.804;2022-08-20T00:22:34;28.30;;;16.57;;
70026;SDS011;57506;50.092;15.804;2022-08-20T00:25:09;26.33;;;17.42;;
70026;SDS011;57506;50.092;15.804;2022-08-20T00:27:35;26.17;;;17.20;;
70026;SDS011;57506;50.092;15.804;2022-08-20T00:30:01;25.43;;;18.33;;
70026;SDS011;57506;50.092;15.804;2022-08-20T00:32:28;25.48;;;18.77;;
70026;SDS011;57506;50.092;15.804;2022-08-20T00:34:58;27.42;;;19.15;;
70026;SDS011;57506;50.092;15.804;2022-08-20T00:37:24;24.47;;;17.67;;
70026;SDS011;57506;50.092;15.804;2022-08-20T00:39:49;26.55;;;19.05;;
70026;SDS011;57506;50.092;15.804;2022-08-20T00:42:15;25.40;;;19.17;;
70026;SDS011;57506;50.092;15.804;2022-08-20T00:44:44;25.55;;;19.30;;
70026;SDS011;57506;50.092;15.804;2022-08-20T00:47:11;24.63;;;17.00;;
70026;SDS011;57506;50.092;15.804;2022-08-20T00:49:36;26.97;;;18.17;;
70026;SDS011;57506;50.092;15.804;2022-08-20T00:52:11;26.83;;;18.37;;
70026;SDS011;57506;50.092;15.804;2022-08-20T00:54:47;24.23;;;16.33;;
70026;SDS011;57506;50.092;15.804;2022-08-20T00:59:46;25.35;;;17.15;;
70026;SDS011;57506;50.092;15.804;2022-08-20T01:02:15;27.77;;;17.83;;
70026;SDS011;57506;50.092;15.804;2022-08-20T01:04:41;23.70;;;17.60;;
70026;SDS011;57506;50.092;15.804;2022-08-20T01:07:14;24.83;;;18.52;;
70026;SDS011;57506;50.092;15.804;2022-08-20T01:09:40;25.20;;;18.50;;
70026;SDS011;57506;50.092;15.804;2022-08-20T01:12:06;31.17;;;21.03;;
70026;SDS011;57506;50.092;15.804;2022-08-20T01:14:33;27.55;;;19.42;;
70026;SDS011;57506;50.092;15.804;2022-08-20T01:17:00;27.67;;;19.50;;
70026;SDS011;57506;50.092;15.804;2022-08-20T01:19:31;27.05;;;19.67;;
70026;SDS011;57506;50.092;15.804;2022-08-20T01:22:02;23.53;;;17.40;;
70026;SDS011;57506;50.092;15.804;2022-08-20T01:24:49;24.88;;;18.63;;
70026;SDS011;57506;50.092;15.804;2022-08-20T01:27:18;25.08;;;18.67;;
70026;SDS011;57506;50.092;15.804;2022-08-20T01:29:46;26.55;;;19.48;;
70026;SDS011;57506;50.092;15.804;2022-08-20T01:32:13;26.73;;;19.33;;
70026;SDS011;57506;50.092;15.804;2022-08-20T01:34:38;32.17;;;20.40;;
70026;SDS011;57506;50.092;15.804;2022-08-20T01:37:04;27.30;;;18.57;;
70026;SDS011;57506;50.092;15.804;2022-08-20T01:39:31;29.73;;;19.20;;
70026;SDS011;57506;50.092;15.804;2022-08-20T01:44:47;26.60;;;18.67;;
70026;SDS011;57506;50.092;15.804;2022-08-20T01:49:53;26.58;;;18.20;;
70026;SDS011;57506;50.092;15.804;2022-08-20T01:55:32;27.38;;;17.85;;
70026;SDS011;57506;50.092;15.804;2022-08-20T01:57:58;23.00;;;17.33;;
70026;SDS011;57506;50.092;15.804;2022-08-20T02:00:25;22.73;;;16.88;;
70026;SDS011;57506;50.092;15.804;2022-08-20T02:02:51;24.27;;;17.05;;
70026;SDS011;57506;50.092;15.804;2022-08-20T02:05:20;25.80;;;17.27;;
70026;SDS011;57506;50.092;15.804;2022-08-20T02:07:46;25.20;;;17.33;;
70026;SDS011;57506;50.092;15.804;2022-08-20T02:10:12;25.30;;;17.43;;
70026;SDS011;57506;50.092;15.804;2022-08-20T02:12:41;27.87;;;19.07;;
70026;SDS011;57506;50.092;15.804;2022-08-20T02:15:07;25.13;;;18.15;;
70026;SDS011;57506;50.092;15.804;2022-08-20T02:17:35;28.10;;;19.52;;
70026;SDS011;57506;50.092;15.804;2022-08-20T02:20:03;24.73;;;19.13;;
70026;SDS011;57506;50.092;15.804;2022-08-20T02:22:44;28.25;;;19.13;;
70026;SDS011;57506;50.092;15.804;2022-08-20T02:25:18;33.03;;;21.00;;
70026;SDS011;57506;50.092;15.804;2022-08-20T02:27:47;29.45;;;20.98;;
70026;SDS011;57506;50.092;15.804;2022-08-20T02:30:24;34.33;;;22.00;;
70026;SDS011;57506;50.092;15.804;2022-08-20T02:32:52;27.50;;;18.88;;
70026;SDS011;57506;50.092;15.804;2022-08-20T02:35:18;26.83;;;18.50;;
70026;SDS011;57506;50.092;15.804;2022-08-20T02:37:44;28.65;;;19.38;;
70026;SDS011;57506;50.092;15.804;2022-08-20T02:40:17;26.85;;;19.05;;
70026;SDS011;57506;50.092;15.804;2022-08-20T02:42:44;25.55;;;18.85;;
70026;SDS011;57506;50.092;15.804;2022-08-20T02:45:12;27.57;;;19.10;;
70026;SDS011;57506;50.092;15.804;2022-08-20T02:47:40;31.30;;;21.02;;
70026;SDS011;57506;50.092;15.804;2022-08-20T02:50:09;36.17;;;22.05;;
70026;SDS011;57506;50.092;15.804;2022-08-20T02:52:38;30.42;;;20.38;;
70026;SDS011;57506;50.092;15.804;2022-08-20T02:55:05;27.80;;;18.77;;
70026;SDS011;57506;50.092;15.804;2022-08-20T02:57:31;23.38;;;16.63;;
70026;SDS011;57506;50.092;15.804;2022-08-20T02:59:57;25.08;;;16.48;;
70026;SDS011;57506;50.092;15.804;2022-08-20T03:02:23;33.77;;;16.80;;
70026;SDS011;57506;50.092;15.804;2022-08-20T03:04:48;32.97;;;19.80;;
70026;SDS011;57506;50.092;15.804;2022-08-20T03:07:20;30.57;;;19.43;;
70026;SDS011;57506;50.092;15.804;2022-08-20T03:09:46;26.67;;;18.83;;
70026;SDS011;57506;50.092;15.804;2022-08-20T03:12:12;24.63;;;17.73;;
70026;SDS011;57506;50.092;15.804;2022-08-20T03:14:37;30.58;;;20.55;;
70026;SDS011;57506;50.092;15.804;2022-08-20T03:17:03;30.73;;;19.80;;
70026;SDS011;57506;50.092;15.804;2022-08-20T03:19:28;30.67;;;19.45;;
70026;SDS011;57506;50.092;15.804;2022-08-20T03:21:54;28.57;;;19.87;;
70026;SDS011;57506;50.092;15.804;2022-08-20T03:24:19;36.27;;;22.27;;
70026;SDS011;57506;50.092;15.804;2022-08-20T03:26:45;37.40;;;21.98;;
70026;SDS011;57506;50.092;15.804;2022-08-20T03:29:11;38.00;;;23.23;;
70026;SDS011;57506;50.092;15.804;2022-08-20T03:31:37;38.13;;;24.15;;
70026;SDS011;57506;50.092;15.804;2022-08-20T03:34:03;40.15;;;24.80;;
70026;SDS011;57506;50.092;15.804;2022-08-20T03:36:29;41.20;;;26.57;;
70026;SDS011;57506;50.092;15.804;2022-08-20T03:38:55;46.90;;;26.65;;
70026;SDS011;57506;50.092;15.804;2022-08-20T03:41:23;39.20;;;24.40;;
70026;SDS011;57506;50.092;15.804;2022-08-20T03:43:50;38.28;;;24.60;;
70026;SDS011;57506;50.092;15.804;2022-08-20T03:46:15;34.27;;;22.17;;
70026;SDS011;57506;50.092;15.804;2022-08-20T03:48:41;36.55;;;23.20;;
70026;SDS011;57506;50.092;15.804;2022-08-20T03:51:07;35.97;;;23.90;;
70026;SDS011;57506;50.092;15.804;2022-08-20T03:53:32;34.85;;;22.85;;
70026;SDS011;57506;50.092;15.804;2022-08-20T03:55:59;35.93;;;22.60;;
70026;SDS011;57506;50.092;15.804;2022-08-20T03:58:29;37.47;;;23.08;;
70026;SDS011;57506;50.092;15.804;2022-08-20T04:01:01;35.00;;;22.40;;
70026;SDS011;57506;50.092;15.804;2022-08-20T04:03:29;37.17;;;22.85;;
70026;SDS011;57506;50.092;15.804;2022-08-20T04:05:54;36.50;;;23.27;;
70026;SDS011;57506;50.092;15.804;2022-08-20T04:08:22;31.33;;;21.40;;
70026;SDS011;57506;50.092;15.804;2022-08-20T04:10:51;30.77;;;20.10;;
70026;SDS011;57506;50.092;15.804;2022-08-20T04:13:20;32.00;;;21.48;;
70026;SDS011;57506;50.092;15.804;2022-08-20T04:15:46;33.00;;;20.35;;
70026;SDS011;57506;50.092;15.804;2022-08-20T04:18:14;38.15;;;21.92;;
70026;SDS011;57506;50.092;15.804;2022-08-20T04:20:44;29.75;;;20.35;;
70026;SDS011;57506;50.092;15.804;2022-08-20T04:23:11;31.10;;;20.67;;
70026;SDS011;57506;50.092;15.804;2022-08-20T04:25:41;28.85;;;20.00;;
70026;SDS011;57506;50.092;15.804;2022-08-20T04:28:09;33.72;;;20.88;;
70026;SDS011;57506;50.092;15.804;2022-08-20T04:30:38;31.75;;;20.73;;
70026;SDS011;57506;50.092;15.804;2022-08-20T04:33:04;29.53;;;20.33;;
70026;SDS011;57506;50.092;15.804;2022-08-20T04:35:30;32.97;;;20.73;;
70026;SDS011;57506;50.092;15.804;2022-08-20T04:37:57;28.13;;;18.70;;
70026;SDS011;57506;50.092;15.804;2022-08-20T04:40:25;28.13;;;19.48;;
70026;SDS011;57506;50.092;15.804;2022-08-20T04:43:09;27.88;;;19.05;;
70026;SDS011;57506;50.092;15.804;2022-08-20T04:45:34;26.33;;;18.40;;
70026;SDS011;57506;50.092;15.804;2022-08-20T04:48:01;31.07;;;19.40;;
70026;SDS011;57506;50.092;15.804;2022-08-20T04:50:29;26.55;;;18.48;;
70026;SDS011;57506;50.092;15.804;2022-08-20T04:52:59;27.40;;;19.02;;
70026;SDS011;57506;50.092;15.804;2022-08-20T04:55:25;29.33;;;21.00;;
70026;SDS011;57506;50.092;15.804;2022-08-20T04:57:50;29.10;;;20.80;;
70026;SDS011;57506;50.092;15.804;2022-08-20T05:00:16;30.87;;;20.60;;
70026;SDS011;57506;50.092;15.804;2022-08-20T05:02:42;31.17;;;20.55;;
70026;SDS011;57506;50.092;15.804;2022-08-20T05:05:08;31.60;;;21.40;;
70026;SDS011;57506;50.092;15.804;2022-08-20T05:07:39;29.17;;;19.10;;
70026;SDS011;57506;50.092;15.804;2022-08-20T05:10:10;29.08;;;20.35;;
70026;SDS011;57506;50.092;15.804;2022-08-20T05:12:39;30.17;;;19.73;;
70026;SDS011;57506;50.092;15.804;2022-08-20T05:15:06;30.60;;;20.83;;
70026;SDS011;57506;50.092;15.804;2022-08-20T05:17:32;32.97;;;19.37;;
70026;SDS011;57506;50.092;15.804;2022-08-20T05:19:58;40.97;;;19.92;;
70026;SDS011;57506;50.092;15.804;2022-08-20T05:22:24;30.40;;;20.05;;
70026;SDS011;57506;50.092;15.804;2022-08-20T05:24:51;33.17;;;18.50;;
70026;SDS011;57506;50.092;15.804;2022-08-20T05:27:17;36.13;;;18.60;;
70026;SDS011;57506;50.092;15.804;2022-08-20T05:29:43;31.95;;;19.75;;
70026;SDS011;57506;50.092;15.804;2022-08-20T05:32:09;35.17;;;20.07;;
70026;SDS011;57506;50.092;15.804;2022-08-20T05:34:36;31.42;;;18.58;;
70026;SDS011;57506;50.092;15.804;2022-08-20T05:37:03;27.45;;;19.05;;
70026;SDS011;57506;50.092;15.804;2022-08-20T05:39:29;34.83;;;20.30;;
70026;SDS011;57506;50.092;15.804;2022-08-20T05:41:54;26.77;;;18.05;;
70026;SDS011;57506;50.092;15.804;2022-08-20T05:44:20;25.80;;;18.50;;
70026;SDS011;57506;50.092;15.804;2022-08-20T05:46:47;31.02;;;19.67;;
70026;SDS011;57506;50.092;15.804;2022-08-20T05:49:14;33.13;;;18.58;;
70026;SDS011;57506;50.092;15.804;2022-08-20T05:51:44;26.50;;;18.70;;
70026;SDS011;57506;50.092;15.804;2022-08-20T05:54:09;28.47;;;19.47;;
70026;SDS011;57506;50.092;15.804;2022-08-20T05:56:40;28.65;;;20.58;;
70026;SDS011;57506;50.092;15.804;2022-08-20T05:59:06;28.45;;;19.88;;
70026;SDS011;57506;50.092;15.804;2022-08-20T06:01:34;29.48;;;19.77;;
70026;SDS011;57506;50.092;15.804;2022-08-20T06:04:02;33.95;;;20.00;;
70026;SDS011;57506;50.092;15.804;2022-08-20T06:06:46;29.50;;;20.50;;
70026;SDS011;57506;50.092;15.804;2022-08-20T06:09:13;32.05;;;20.55;;
70026;SDS011;57506;50.092;15.804;2022-08-20T06:11:40;33.90;;;21.50;;
70026;SDS011;57506;50.092;15.804;2022-08-20T06:14:06;28.63;;;20.30;;
70026;SDS011;57506;50.092;15.804;2022-08-20T06:16:33;25.67;;;18.33;;
70026;SDS011;57506;50.092;15.804;2022-08-20T06:19:03;29.03;;;19.03;;
70026;SDS011;57506;50.092;15.804;2022-08-20T06:21:29;29.00;;;19.50;;
70026;SDS011;57506;50.092;15.804;2022-08-20T06:23:55;28.83;;;18.65;;
70026;SDS011;57506;50.092;15.804;2022-08-20T06:26:24;26.70;;;18.75;;
70026;SDS011;57506;50.092;15.804;2022-08-20T06:28:50;27.63;;;18.63;;
70026;SDS011;57506;50.092;15.804;2022-08-20T06:31:16;30.73;;;20.45;;
70026;SDS011;57506;50.092;15.804;2022-08-20T06:33:42;29.30;;;20.08;;
70026;SDS011;57506;50.092;15.804;2022-08-20T06:36:08;34.43;;;21.03;;
70026;SDS011;57506;50.092;15.804;2022-08-20T06:38:34;33.38;;;21.27;;
70026;SDS011;57506;50.092;15.804;2022-08-20T06:41:00;35.30;;;21.70;;
70026;SDS011;57506;50.092;15.804;2022-08-20T06:43:26;30.43;;;20.90;;
70026;SDS011;57506;50.092;15.804;2022-08-20T06:45:52;34.08;;;21.73;;
70026;SDS011;57506;50.092;15.804;2022-08-20T06:48:23;28.70;;;19.30;;
70026;SDS011;57506;50.092;15.804;2022-08-20T06:50:49;31.30;;;19.13;;
70026;SDS011;57506;50.092;15.804;2022-08-20T06:53:16;30.17;;;19.50;;
70026;SDS011;57506;50.092;15.804;2022-08-20T06:55:52;26.20;;;19.15;;
70026;SDS011;57506;50.092;15.804;2022-08-20T06:58:19;28.15;;;18.85;;
70026;SDS011;57506;50.092;15.804;2022-08-20T07:00:46;31.40;;;21.07;;
70026;SDS011;57506;50.092;15.804;2022-08-20T07:03:13;34.80;;;21.60;;
70026;SDS011;57506;50.092;15.804;2022-08-20T07:05:40;32.78;;;21.63;;
70026;SDS011;57506;50.092;15.804;2022-08-20T07:08:11;30.63;;;20.05;;
70026;SDS011;57506;50.092;15.804;2022-08-20T07:10:39;34.35;;;21.23;;
70026;SDS011;57506;50.092;15.804;2022-08-20T07:13:08;31.07;;;19.77;;
70026;SDS011;57506;50.092;15.804;2022-08-20T07:15:36;30.83;;;19.83;;
70026;SDS011;57506;50.092;15.804;2022-08-20T07:18:04;30.55;;;19.48;;
70026;SDS011;57506;50.092;15.804;2022-08-20T07:20:31;31.02;;;19.65;;
70026;SDS011;57506;50.092;15.804;2022-08-20T07:22:59;28.23;;;19.17;;
70026;SDS011;57506;50.092;15.804;2022-08-20T07:25:25;30.83;;;19.90;;
70026;SDS011;57506;50.092;15.804;2022-08-20T07:27:51;29.35;;;18.48;;
70026;SDS011;57506;50.092;15.804;2022-08-20T07:30:19;29.67;;;18.77;;
70026;SDS011;57506;50.092;15.804;2022-08-20T07:33:07;33.28;;;20.73;;
70026;SDS011;57506;50.092;15.804;2022-08-20T07:35:33;30.75;;;18.70;;
70026;SDS011;57506;50.092;15.804;2022-08-20T07:37:59;28.83;;;18.43;;
70026;SDS011;57506;50.092;15.804;2022-08-20T07:40:26;27.95;;;18.45;;
70026;SDS011;57506;50.092;15.804;2022-08-20T07:42:54;31.48;;;20.30;;
70026;SDS011;57506;50.092;15.804;2022-08-20T07:45:21;31.38;;;20.02;;
70026;SDS011;57506;50.092;15.804;2022-08-20T07:47:47;26.80;;;18.40;;
70026;SDS011;57506;50.092;15.804;2022-08-20T07:50:15;31.67;;;19.13;;
70026;SDS011;57506;50.092;15.804;2022-08-20T07:52:44;28.20;;;19.90;;
70026;SDS011;57506;50.092;15.804;2022-08-20T07:55:11;33.67;;;19.63;;
70026;SDS011;57506;50.092;15.804;2022-08-20T07:57:39;29.17;;;17.67;;
70026;SDS011;57506;50.092;15.804;2022-08-20T08:00:06;25.73;;;16.63;;
70026;SDS011;57506;50.092;15.804;2022-08-20T08:02:34;24.98;;;17.63;;
70026;SDS011;57506;50.092;15.804;2022-08-20T08:05:00;32.47;;;18.75;;
70026;SDS011;57506;50.092;15.804;2022-08-20T08:07:27;26.65;;;17.25;;
70026;SDS011;57506;50.092;15.804;2022-08-20T08:09:52;24.03;;;16.10;;
70026;SDS011;57506;50.092;15.804;2022-08-20T08:12:20;24.48;;;16.05;;
70026;SDS011;57506;50.092;15.804;2022-08-20T08:14:47;27.65;;;17.75;;
70026;SDS011;57506;50.092;15.804;2022-08-20T08:17:14;25.48;;;16.13;;
70026;SDS011;57506;50.092;15.804;2022-08-20T08:19:42;26.98;;;16.77;;
70026;SDS011;57506;50.092;15.804;2022-08-20T08:22:13;24.20;;;17.37;;
70026;SDS011;57506;50.092;15.804;2022-08-20T08:24:42;22.65;;;16.20;;
70026;SDS011;57506;50.092;15.804;2022-08-20T08:27:09;21.30;;;15.13;;
70026;SDS011;57506;50.092;15.804;2022-08-20T08:29:35;21.30;;;14.93;;
70026;SDS011;57506;50.092;15.804;2022-08-20T08:32:02;20.77;;;14.68;;
70026;SDS011;57506;50.092;15.804;2022-08-20T08:34:29;23.67;;;15.03;;
70026;SDS011;57506;50.092;15.804;2022-08-20T08:36:56;24.50;;;15.48;;
70026;SDS011;57506;50.092;15.804;2022-08-20T08:39:22;21.05;;;15.25;;
70026;SDS011;57506;50.092;15.804;2022-08-20T08:41:49;26.70;;;16.30;;
70026;SDS011;57506;50.092;15.804;2022-08-20T08:44:21;18.67;;;13.65;;
70026;SDS011;57506;50.092;15.804;2022-08-20T08:47:34;19.77;;;14.37;;
70026;SDS011;57506;50.092;15.804;2022-08-20T08:49:49;22.02;;;15.13;;
70026;SDS011;57506;50.092;15.804;2022-08-20T08:52:22;19.67;;;12.80;;
70026;SDS011;57506;50.092;15.804;2022-08-20T08:54:52;15.27;;;11.20;;
70026;SDS011;57506;50.092;15.804;2022-08-20T08:57:22;18.05;;;12.25;;
70026;SDS011;57506;50.092;15.804;2022-08-20T08:59:58;21.50;;;12.73;;
70026;SDS011;57506;50.092;15.804;2022-08-20T09:02:29;18.98;;;11.68;;
70026;SDS011;57506;50.092;15.804;2022-08-20T09:04:57;18.85;;;12.60;;
70026;SDS011;57506;50.092;15.804;2022-08-20T09:07:29;15.73;;;11.43;;
70026;SDS011;57506;50.092;15.804;2022-08-20T09:09:56;16.38;;;10.73;;
70026;SDS011;57506;50.092;15.804;2022-08-20T09:12:23;19.98;;;11.88;;
70026;SDS011;57506;50.092;15.804;2022-08-20T09:14:51;19.27;;;11.85;;
70026;SDS011;57506;50.092;15.804;2022-08-20T09:17:19;19.63;;;12.02;;
70026;SDS011;57506;50.092;15.804;2022-08-20T09:19:45;16.40;;;11.97;;
70026;SDS011;57506;50.092;15.804;2022-08-20T09:22:12;15.52;;;11.52;;
70026;SDS011;57506;50.092;15.804;2022-08-20T09:24:41;16.25;;;10.30;;
70026;SDS011;57506;50.092;15.804;2022-08-20T09:27:07;22.42;;;12.27;;
70026;SDS011;57506;50.092;15.804;2022-08-20T09:29:33;15.73;;;10.47;;
70026;SDS011;57506;50.092;15.804;2022-08-20T09:32:06;12.82;;;9.60;;
70026;SDS011;57506;50.092;15.804;2022-08-20T09:34:37;12.85;;;9.32;;
70026;SDS011;57506;50.092;15.804;2022-08-20T09:37:07;15.48;;;9.52;;
70026;SDS011;57506;50.092;15.804;2022-08-20T09:39:34;14.20;;;9.40;;
70026;SDS011;57506;50.092;15.804;2022-08-20T09:44:33;15.20;;;10.30;;
70026;SDS011;57506;50.092;15.804;2022-08-20T09:46:59;15.60;;;10.23;;
70026;SDS011;57506;50.092;15.804;2022-08-20T09:49:24;16.70;;;10.30;;
70026;SDS011;57506;50.092;15.804;2022-08-20T09:51:50;14.23;;;10.17;;
70026;SDS011;57506;50.092;15.804;2022-08-20T09:54:15;15.85;;;9.50;;
70026;SDS011;57506;50.092;15.804;2022-08-20T09:56:41;15.60;;;10.70;;
70026;SDS011;57506;50.092;15.804;2022-08-20T09:59:06;16.30;;;10.60;;
70026;SDS011;57506;50.092;15.804;2022-08-20T10:01:32;17.67;;;10.07;;
70026;SDS011;57506;50.092;15.804;2022-08-20T10:03:58;13.27;;;9.27;;
70026;SDS011;57506;50.092;15.804;2022-08-20T10:06:23;13.43;;;8.90;;
70026;SDS011;57506;50.092;15.804;2022-08-20T10:08:49;12.85;;;9.40;;
70026;SDS011;57506;50.092;15.804;2022-08-20T10:11:15;14.53;;;10.00;;
70026;SDS011;57506;50.092;15.804;2022-08-20T10:13:41;13.75;;;9.70;;
70026;SDS011;57506;50.092;15.804;2022-08-20T10:16:07;16.43;;;10.23;;
70026;SDS011;57506;50.092;15.804;2022-08-20T10:18:33;16.35;;;10.18;;
70026;SDS011;57506;50.092;15.804;2022-08-20T10:20:59;14.68;;;10.13;;
70026;SDS011;57506;50.092;15.804;2022-08-20T10:23:25;15.30;;;9.97;;
70026;SDS011;57506;50.092;15.804;2022-08-20T10:25:51;14.40;;;9.75;;
70026;SDS011;57506;50.092;15.804;2022-08-20T10:28:16;12.83;;;9.53;;
70026;SDS011;57506;50.092;15.804;2022-08-20T10:30:42;13.68;;;9.20;;
70026;SDS011;57506;50.092;15.804;2022-08-20T10:33:09;13.83;;;9.10;;
70026;SDS011;57506;50.092;15.804;2022-08-20T10:35:35;14.55;;;9.60;;
70026;SDS011;57506;50.092;15.804;2022-08-20T10:38:00;15.02;;;9.30;;
70026;SDS011;57506;50.092;15.804;2022-08-20T10:40:26;19.07;;;9.57;;
70026;SDS011;57506;50.092;15.804;2022-08-20T10:42:52;14.70;;;10.40;;
70026;SDS011;57506;50.092;15.804;2022-08-20T10:45:18;13.57;;;9.83;;
70026;SDS011;57506;50.092;15.804;2022-08-20T10:47:45;14.18;;;9.70;;
70026;SDS011;57506;50.092;15.804;2022-08-20T10:50:15;14.50;;;9.50;;
70026;SDS011;57506;50.092;15.804;2022-08-20T10:52:40;15.27;;;10.07;;
70026;SDS011;57506;50.092;15.804;2022-08-20T10:55:06;14.95;;;10.65;;
70026;SDS011;57506;50.092;15.804;2022-08-20T10:57:33;14.40;;;10.35;;
70026;SDS011;57506;50.092;15.804;2022-08-20T10:59:59;16.07;;;9.93;;
70026;SDS011;57506;50.092;15.804;2022-08-20T11:02:25;16.87;;;10.90;;
70026;SDS011;57506;50.092;15.804;2022-08-20T11:04:52;17.75;;;10.77;;
70026;SDS011;57506;50.092;15.804;2022-08-20T11:07:19;17.10;;;10.65;;
70026;SDS011;57506;50.092;15.804;2022-08-20T11:09:46;16.08;;;10.82;;
70026;SDS011;57506;50.092;15.804;2022-08-20T11:12:13;18.95;;;10.70;;
70026;SDS011;57506;50.092;15.804;2022-08-20T11:14:39;15.20;;;10.43;;
70026;SDS011;57506;50.092;15.804;2022-08-20T11:17:06;18.55;;;10.63;;
70026;SDS011;57506;50.092;15.804;2022-08-20T11:19:36;16.77;;;10.90;;
70026;SDS011;57506;50.092;15.804;2022-08-20T11:22:07;15.65;;;11.15;;
70026;SDS011;57506;50.092;15.804;2022-08-20T11:24:32;16.63;;;10.80;;
70026;SDS011;57506;50.092;15.804;2022-08-20T11:26:58;16.17;;;10.55;;
70026;SDS011;57506;50.092;15.804;2022-08-20T11:29:24;16.70;;;10.37;;
70026;SDS011;57506;50.092;15.804;2022-08-20T11:31:50;17.93;;;12.07;;
70026;SDS011;57506;50.092;15.804;2022-08-20T11:34:16;19.55;;;12.68;;
70026;SDS011;57506;50.092;15.804;2022-08-20T11:36:42;18.88;;;11.55;;
70026;SDS011;57506;50.092;15.804;2022-08-20T11:39:09;17.80;;;11.83;;
70026;SDS011;57506;50.092;15.804;2022-08-20T11:41:36;20.02;;;11.45;;
70026;SDS011;57506;50.092;15.804;2022-08-20T11:44:01;19.58;;;12.60;;
70026;SDS011;57506;50.092;15.804;2022-08-20T11:46:27;19.35;;;11.98;;
70026;SDS011;57506;50.092;15.804;2022-08-20T11:48:53;16.85;;;12.77;;
70026;SDS011;57506;50.092;15.804;2022-08-20T11:51:19;16.17;;;11.83;;
70026;SDS011;57506;50.092;15.804;2022-08-20T11:53:45;20.03;;;12.40;;
70026;SDS011;57506;50.092;15.804;2022-08-20T11:56:10;18.42;;;12.60;;
70026;SDS011;57506;50.092;15.804;2022-08-20T11:58:38;18.10;;;11.73;;
70026;SDS011;57506;50.092;15.804;2022-08-20T12:01:03;19.50;;;12.40;;
70026;SDS011;57506;50.092;15.804;2022-08-20T12:03:29;17.27;;;12.10;;
70026;SDS011;57506;50.092;15.804;2022-08-20T12:05:55;17.17;;;11.77;;
70026;SDS011;57506;50.092;15.804;2022-08-20T12:08:21;20.02;;;13.13;;
70026;SDS011;57506;50.092;15.804;2022-08-20T12:10:47;20.83;;;10.10;;
70026;SDS011;57506;50.092;15.804;2022-08-20T12:13:13;16.35;;;10.55;;
70026;SDS011;57506;50.092;15.804;2022-08-20T12:15:38;16.63;;;11.67;;
70026;SDS011;57506;50.092;15.804;2022-08-20T12:18:05;16.57;;;11.40;;
70026;SDS011;57506;50.092;15.804;2022-08-20T12:20:32;16.48;;;12.18;;
70026;SDS011;57506;50.092;15.804;2022-08-20T12:22:58;18.77;;;12.00;;
70026;SDS011;57506;50.092;15.804;2022-08-20T12:25:24;18.37;;;11.70;;
70026;SDS011;57506;50.092;15.804;2022-08-20T12:27:50;16.13;;;10.50;;
70026;SDS011;57506;50.092;15.804;2022-08-20T12:30:17;14.50;;;10.30;;
70026;SDS011;57506;50.092;15.804;2022-08-20T12:32:44;15.52;;;10.40;;
70026;SDS011;57506;50.092;15.804;2022-08-20T12:35:11;14.80;;;10.27;;
70026;SDS011;57506;50.092;15.804;2022-08-20T12:37:39;12.00;;;9.43;;
70026;SDS011;57506;50.092;15.804;2022-08-20T12:40:07;13.00;;;9.20;;
70026;SDS011;57506;50.092;15.804;2022-08-20T12:42:35;16.20;;;9.35;;
70026;SDS011;57506;50.092;15.804;2022-08-20T12:45:01;14.75;;;9.18;;
70026;SDS011;57506;50.092;15.804;2022-08-20T12:47:31;12.83;;;9.03;;
70026;SDS011;57506;50.092;15.804;2022-08-20T12:50:00;13.40;;;8.27;;
70026;SDS011;57506;50.092;15.804;2022-08-20T12:52:29;12.70;;;7.45;;
70026;SDS011;57506;50.092;15.804;2022-08-20T12:54:55;11.20;;;7.30;;
70026;SDS011;57506;50.092;15.804;2022-08-20T12:59:48;9.60;;;5.70;;
70026;SDS011;57506;50.092;15.804;2022-08-20T13:02:13;9.60;;;5.50;;
70026;SDS011;57506;50.092;15.804;2022-08-20T13:04:41;9.63;;;6.23;;
70026;SDS011;57506;50.092;15.804;2022-08-20T13:07:09;9.05;;;5.40;;
70026;SDS011;57506;50.092;15.804;2022-08-20T13:09:35;10.38;;;5.30;;
70026;SDS011;57506;50.092;15.804;2022-08-20T13:12:01;7.97;;;5.60;;
70026;SDS011;57506;50.092;15.804;2022-08-20T13:14:26;10.70;;;5.47;;
70026;SDS011;57506;50.092;15.804;2022-08-20T13:16:56;8.95;;;5.45;;
70026;SDS011;57506;50.092;15.804;2022-08-20T13:19:23;13.52;;;7.05;;
70026;SDS011;57506;50.092;15.804;2022-08-20T13:21:49;7.97;;;5.40;;
70026;SDS011;57506;50.092;15.804;2022-08-20T13:24:15;8.40;;;5.63;;
70026;SDS011;57506;50.092;15.804;2022-08-20T13:26:41;8.73;;;5.37;;
70026;SDS011;57506;50.092;15.804;2022-08-20T13:29:06;9.07;;;5.90;;
70026;SDS011;57506;50.092;15.804;2022-08-20T13:31:32;9.67;;;5.87;;
70026;SDS011;57506;50.092;15.804;2022-08-20T13:33:58;12.63;;;6.57;;
70026;SDS011;57506;50.092;15.804;2022-08-20T13:36:24;11.97;;;6.50;;
70026;SDS011;57506;50.092;15.804;2022-08-20T13:38:50;10.02;;;6.40;;
70026;SDS011;57506;50.092;15.804;2022-08-20T13:41:15;9.30;;;6.20;;
70026;SDS011;57506;50.092;15.804;2022-08-20T13:43:41;9.63;;;6.07;;
70026;SDS011;57506;50.092;15.804;2022-08-20T13:46:07;9.55;;;5.82;;
70026;SDS011;57506;50.092;15.804;2022-08-20T13:48:32;10.30;;;5.87;;
70026;SDS011;57506;50.092;15.804;2022-08-20T13:50:58;9.10;;;5.57;;
70026;SDS011;57506;50.092;15.804;2022-08-20T13:53:24;9.23;;;5.27;;
70026;SDS011;57506;50.092;15.804;2022-08-20T13:55:50;10.70;;;5.30;;
70026;SDS011;57506;50.092;15.804;2022-08-20T13:58:15;9.77;;;5.70;;
70026;SDS011;57506;50.092;15.804;2022-08-20T14:00:42;8.57;;;5.13;;
70026;SDS011;57506;50.092;15.804;2022-08-20T14:03:08;7.80;;;4.78;;
70026;SDS011;57506;50.092;15.804;2022-08-20T14:05:41;7.75;;;5.50;;
70026;SDS011;57506;50.092;15.804;2022-08-20T14:08:09;9.07;;;5.18;;
70026;SDS011;57506;50.092;15.804;2022-08-20T14:10:40;8.63;;;5.40;;
70026;SDS011;57506;50.092;15.804;2022-08-20T14:13:07;6.57;;;4.27;;
70026;SDS011;57506;50.092;15.804;2022-08-20T14:15:33;8.95;;;4.43;;
70026;SDS011;57506;50.092;15.804;2022-08-20T14:17:59;5.70;;;3.78;;
70026;SDS011;57506;50.092;15.804;2022-08-20T14:20:26;5.67;;;2.97;;
70026;SDS011;57506;50.092;15.804;2022-08-20T14:22:54;4.93;;;2.65;;
70026;SDS011;57506;50.092;15.804;2022-08-20T14:25:21;6.15;;;2.67;;
70026;SDS011;57506;50.092;15.804;2022-08-20T14:27:47;4.10;;;2.63;;
70026;SDS011;57506;50.092;15.804;2022-08-20T14:30:19;3.90;;;2.07;;